createdAt,value
2023-02-17T00:01:52.100Z,26.63
2023-02-17T00:04:21.790Z,28.73
2023-02-17T00:06:51.840Z,28.42
2023-02-17T00:09:22.221Z,27.73
2023-02-17T00:11:52.699Z,27.17
2023-02-17T00:14:22.346Z,27.30
2023-02-17T00:16:52.312Z,27.73
2023-02-17T00:19:25.560Z,27.95
2023-02-17T00:22:00.880Z,27.23
2023-02-17T00:24:40.043Z,30.02
2023-02-17T00:27:11.094Z,29.80
2023-02-17T00:29:41.238Z,30.42
2023-02-17T00:32:10.624Z,30.25
2023-02-17T00:34:39.084Z,29.67
2023-02-17T00:37:06.507Z,31.67
2023-02-17T00:39:37.726Z,30.58
2023-02-17T00:42:11.174Z,28.30
2023-02-17T00:44:41.647Z,29.95
2023-02-17T00:47:11.691Z,29.98
2023-02-17T00:49:41.802Z,30.02
2023-02-17T00:52:12.166Z,28.27
2023-02-17T00:54:42.558Z,29.95
2023-02-17T00:57:12.629Z,30.17
2023-02-17T00:59:42.807Z,31.23
2023-02-17T01:02:12.951Z,28.58
2023-02-17T01:04:43.120Z,32.40
2023-02-17T01:07:13.244Z,28.38
2023-02-17T01:09:43.330Z,30.58
2023-02-17T01:12:18.403Z,28.23
2023-02-17T01:14:48.881Z,31.05
2023-02-17T01:17:18.985Z,29.88
2023-02-17T01:19:47.398Z,31.95
2023-02-17T01:22:15.921Z,31.92
2023-02-17T01:24:44.460Z,32.13
2023-02-17T01:27:12.737Z,31.63
2023-02-17T01:29:41.077Z,32.33
2023-02-17T01:32:09.498Z,32.15
2023-02-17T01:34:39.041Z,31.60
2023-02-17T01:37:06.565Z,31.10
2023-02-17T01:39:34.806Z,31.30
2023-02-17T01:42:05.087Z,32.75
2023-02-17T01:44:35.430Z,31.70
2023-02-17T01:47:05.531Z,30.42
2023-02-17T01:49:42.200Z,33.67
2023-02-17T01:52:26.537Z,32.55
2023-02-17T01:55:09.052Z,32.63
2023-02-17T01:57:45.596Z,31.48
2023-02-17T02:00:18.804Z,31.45
2023-02-17T02:02:51.669Z,30.83
2023-02-17T02:05:23.238Z,31.65
2023-02-17T02:07:54.784Z,32.55
2023-02-17T02:10:25.033Z,30.75
2023-02-17T02:12:54.562Z,31.58
2023-02-17T02:15:38.008Z,31.35
2023-02-17T02:18:44.140Z,31.08
2023-02-17T02:21:34.645Z,31.17
2023-02-17T02:24:53.996Z,33.78
2023-02-17T02:27:53.761Z,31.35
2023-02-17T02:31:17.689Z,29.02
2023-02-17T02:34:00.602Z,33.45
2023-02-17T02:37:00.506Z,32.72
2023-02-17T02:44:52.105Z,33.22
2023-02-17T02:47:38.886Z,33.72
2023-02-17T02:50:33.592Z,35.22
2023-02-17T02:53:43.547Z,33.00
2023-02-17T02:56:31.532Z,32.28
2023-02-17T02:59:26.215Z,34.17
2023-02-17T03:02:27.389Z,33.08
2023-02-17T03:05:42.846Z,32.97
2023-02-17T03:08:36.332Z,35.28
2023-02-17T03:11:07.782Z,35.58
2023-02-17T03:13:39.620Z,34.47
2023-02-17T03:16:12.202Z,34.40
2023-02-17T03:18:42.659Z,37.15
2023-02-17T03:21:16.754Z,35.45
2023-02-17T03:23:46.807Z,35.83
2023-02-17T03:26:16.932Z,36.38
2023-02-17T03:28:47.036Z,37.38
2023-02-17T03:31:17.435Z,34.40
2023-02-17T03:33:47.758Z,34.65
2023-02-17T03:36:18.179Z,36.75
2023-02-17T03:38:48.342Z,35.00
2023-02-17T03:41:18.438Z,36.72
2023-02-17T03:43:48.527Z,38.45
2023-02-17T03:46:19.164Z,36.67
2023-02-17T03:48:49.462Z,36.00
2023-02-17T03:51:24.449Z,37.13
2023-02-17T03:53:54.489Z,34.67
2023-02-17T03:56:24.553Z,37.88
2023-02-17T03:58:54.703Z,34.28
2023-02-17T04:01:25.089Z,37.13
2023-02-17T04:03:55.246Z,34.78
2023-02-17T04:06:25.431Z,35.00
2023-02-17T04:08:55.557Z,37.80
2023-02-17T04:11:25.695Z,37.22
2023-02-17T04:13:55.870Z,38.67
2023-02-17T04:16:26.039Z,36.10
2023-02-17T04:18:56.150Z,35.10
2023-02-17T04:21:26.491Z,37.60
2023-02-17T04:23:57.511Z,36.53
2023-02-17T04:26:29.326Z,35.35
2023-02-17T04:28:59.423Z,36.83
2023-02-17T04:31:29.697Z,36.03
2023-02-17T04:33:59.843Z,34.72
2023-02-17T04:36:30.025Z,34.63
2023-02-17T04:39:00.091Z,35.30
2023-02-17T04:41:30.156Z,35.15
2023-02-17T04:44:00.244Z,33.03
2023-02-17T04:46:30.596Z,34.50
2023-02-17T04:49:00.700Z,34.67
2023-02-17T04:51:31.036Z,34.70
2023-02-17T04:54:01.132Z,34.92
2023-02-17T04:56:29.549Z,37.47
2023-02-17T04:58:57.976Z,36.03
2023-02-17T05:01:26.496Z,34.47
2023-02-17T05:03:54.779Z,35.55
2023-02-17T05:06:23.359Z,36.08
2023-02-17T05:08:53.784Z,34.03
2023-02-17T05:11:23.534Z,34.65
2023-02-17T05:13:52.535Z,36.05
2023-02-17T05:16:20.105Z,35.38
2023-02-17T05:18:48.557Z,34.83
2023-02-17T05:21:17.189Z,36.42
2023-02-17T05:23:45.366Z,36.03
2023-02-17T05:26:14.503Z,35.13
2023-02-17T05:28:42.485Z,34.75
2023-02-17T05:31:11.163Z,33.78
2023-02-17T05:33:39.160Z,36.55
2023-02-17T05:36:11.605Z,35.60
2023-02-17T05:38:40.860Z,33.88
2023-02-17T05:41:10.921Z,33.30
2023-02-17T05:43:40.684Z,34.33
2023-02-17T05:46:10.772Z,34.97
2023-02-17T05:48:41.452Z,35.38
2023-02-17T05:51:10.942Z,35.08
2023-02-17T05:53:40.785Z,34.58
2023-02-17T05:56:11.004Z,35.00
2023-02-17T05:58:40.708Z,32.97
2023-02-17T06:01:13.247Z,32.45
2023-02-17T06:03:42.509Z,32.97
2023-02-17T06:06:12.386Z,33.67
2023-02-17T06:08:42.605Z,33.35
2023-02-17T06:11:12.793Z,33.88
2023-02-17T06:13:42.956Z,31.60
2023-02-17T06:16:12.771Z,35.00
2023-02-17T06:18:42.735Z,32.22
2023-02-17T06:21:12.781Z,32.22
2023-02-17T06:23:42.468Z,31.38
2023-02-17T06:26:12.364Z,32.05
2023-02-17T06:28:42.189Z,29.27
2023-02-17T06:31:12.390Z,31.52
2023-02-17T06:33:42.929Z,29.65
2023-02-17T06:36:11.140Z,29.63
2023-02-17T06:38:39.327Z,27.95
2023-02-17T06:41:07.688Z,29.67
2023-02-17T06:43:36.115Z,28.48
2023-02-17T06:46:05.234Z,28.48
2023-02-17T06:48:35.974Z,28.42
2023-02-17T06:51:05.121Z,26.80
2023-02-17T06:53:32.824Z,26.85
2023-02-17T06:56:01.182Z,28.17
2023-02-17T06:58:29.638Z,26.98
2023-02-17T07:00:57.985Z,26.02
2023-02-17T07:03:26.506Z,26.75
2023-02-17T07:06:01.366Z,27.10
2023-02-17T07:08:32.433Z,25.15
2023-02-17T07:11:13.088Z,25.33
2023-02-17T07:13:42.535Z,28.73
2023-02-17T07:16:15.026Z,23.80
2023-02-17T07:18:44.835Z,25.10
2023-02-17T07:21:15.399Z,26.77
2023-02-17T07:23:45.350Z,25.95
2023-02-17T07:26:15.916Z,25.02
2023-02-17T07:28:46.044Z,26.90
2023-02-17T07:31:18.258Z,26.17
2023-02-17T07:33:50.121Z,23.75
2023-02-17T07:36:19.284Z,24.63
2023-02-17T07:38:49.529Z,24.40
2023-02-17T07:41:24.925Z,26.13
2023-02-17T07:43:57.728Z,24.92
2023-02-17T07:46:27.933Z,25.42
2023-02-17T07:48:58.744Z,24.55
2023-02-17T07:51:28.906Z,25.38
2023-02-17T07:53:58.867Z,23.88
2023-02-17T07:56:30.162Z,24.80
2023-02-17T07:59:00.260Z,24.42
2023-02-17T08:01:30.274Z,23.60
2023-02-17T08:04:00.084Z,22.63
2023-02-17T08:06:30.142Z,21.45
2023-02-17T08:09:18.992Z,22.63
2023-02-17T08:12:08.765Z,22.97
2023-02-17T08:14:39.116Z,22.13
2023-02-17T08:17:09.062Z,22.60
2023-02-17T08:19:47.992Z,21.50
2023-02-17T08:22:19.045Z,22.45
2023-02-17T08:24:49.267Z,21.13
2023-02-17T08:27:21.306Z,20.65
2023-02-17T08:29:50.787Z,20.48
2023-02-17T08:32:20.300Z,20.38
2023-02-17T08:34:49.650Z,20.38
2023-02-17T08:37:17.117Z,20.30
2023-02-17T08:39:45.496Z,19.90
2023-02-17T08:42:20.051Z,20.42
2023-02-17T08:44:50.011Z,19.33
2023-02-17T08:47:19.832Z,22.08
2023-02-17T08:49:49.569Z,21.13
2023-02-17T08:52:19.596Z,20.92
2023-02-17T08:54:51.582Z,19.77
2023-02-17T08:57:22.535Z,20.38
2023-02-17T08:59:54.239Z,20.90
2023-02-17T09:02:24.261Z,20.13
2023-02-17T09:04:54.263Z,19.33
2023-02-17T09:07:24.362Z,19.35
2023-02-17T09:09:54.091Z,18.77
2023-02-17T09:12:24.105Z,19.60
2023-02-17T09:14:53.921Z,19.92
2023-02-17T09:17:24.182Z,19.77
2023-02-17T09:19:54.842Z,19.50
2023-02-17T09:22:31.904Z,18.48
2023-02-17T09:25:04.708Z,19.60
2023-02-17T09:27:33.924Z,19.25
2023-02-17T09:30:05.279Z,20.10
2023-02-17T09:32:32.730Z,20.15
2023-02-17T09:35:06.066Z,19.55
2023-02-17T09:37:36.187Z,18.48
2023-02-17T09:40:08.668Z,19.77
2023-02-17T09:42:41.326Z,19.65
2023-02-17T09:45:32.599Z,20.88
2023-02-17T09:48:11.730Z,19.85
2023-02-17T09:51:48.082Z,22.15
2023-02-17T09:55:10.571Z,19.88
2023-02-17T09:58:03.385Z,21.15
2023-02-17T10:00:46.665Z,21.85
2023-02-17T10:03:35.941Z,22.35
2023-02-17T10:07:24.776Z,21.30
2023-02-17T10:10:27.572Z,21.42
2023-02-17T10:13:04.470Z,21.85
2023-02-17T10:15:48.617Z,22.70
2023-02-17T10:18:31.376Z,23.30
2023-02-17T10:21:40.686Z,22.27
2023-02-17T10:24:10.868Z,22.13
2023-02-17T10:27:32.501Z,23.65
2023-02-17T10:30:40.445Z,23.33
2023-02-17T10:33:47.516Z,22.15
2023-02-17T10:36:56.808Z,23.63
2023-02-17T10:39:50.641Z,24.00
2023-02-17T10:42:35.705Z,24.38
2023-02-17T10:45:13.293Z,24.88
2023-02-17T10:47:44.598Z,23.02
2023-02-17T10:50:25.416Z,23.45
2023-02-17T10:52:57.329Z,23.15
2023-02-17T10:56:07.469Z,22.90
2023-02-17T10:58:46.079Z,22.88
2023-02-17T11:01:16.402Z,21.75
2023-02-17T11:03:46.626Z,22.42
2023-02-17T11:06:23.652Z,22.25
2023-02-17T11:09:07.668Z,21.88
2023-02-17T11:11:37.297Z,22.58
2023-02-17T11:14:19.483Z,21.05
2023-02-17T11:17:29.302Z,20.55
2023-02-17T11:20:07.388Z,20.55
2023-02-17T11:22:47.208Z,19.23
2023-02-17T11:25:32.278Z,19.33
2023-02-17T11:28:24.026Z,18.80
2023-02-17T11:31:00.357Z,18.05
2023-02-17T11:33:39.491Z,18.63
2023-02-17T11:36:32.379Z,17.02
2023-02-17T11:39:20.936Z,17.42
2023-02-17T11:41:51.041Z,17.40
2023-02-17T11:44:28.401Z,16.55
2023-02-17T11:47:22.816Z,16.08
2023-02-17T11:51:03.036Z,14.75
2023-02-17T11:54:18.045Z,14.70
2023-02-17T11:57:00.492Z,14.95
2023-02-17T11:59:53.542Z,14.88
2023-02-17T12:02:56.058Z,12.77
2023-02-17T12:06:08.887Z,14.05
2023-02-17T12:09:20.868Z,13.00
2023-02-17T12:12:18.272Z,12.48
2023-02-17T12:15:36.560Z,11.13
2023-02-17T12:18:58.726Z,12.40
2023-02-17T12:22:22.545Z,11.95
2023-02-17T12:25:10.221Z,10.75
2023-02-17T12:28:20.808Z,10.00
2023-02-17T12:34:24.385Z,10.25
2023-02-17T12:36:59.273Z,9.77
2023-02-17T12:39:46.049Z,10.20
2023-02-17T12:43:07.125Z,9.27
2023-02-17T12:45:46.741Z,9.63
2023-02-17T12:48:45.753Z,9.00
2023-02-17T12:51:31.960Z,8.53
2023-02-17T12:54:52.920Z,8.40
2023-02-17T12:57:53.393Z,8.05
2023-02-17T13:00:44.491Z,8.18
2023-02-17T13:03:15.150Z,7.20
2023-02-17T13:06:38.276Z,8.15
2023-02-17T13:09:44.448Z,8.23
2023-02-17T13:12:23.648Z,8.27
2023-02-17T13:14:59.674Z,7.88
2023-02-17T13:17:34.730Z,8.15
2023-02-17T13:20:10.626Z,7.60
2023-02-17T13:22:45.761Z,7.38
2023-02-17T13:25:37.771Z,7.05
2023-02-17T13:28:38.843Z,7.18
2023-02-17T13:31:25.382Z,7.35
2023-02-17T13:33:59.397Z,7.63
2023-02-17T13:36:29.250Z,7.57
2023-02-17T13:39:27.028Z,6.93
2023-02-17T13:42:02.444Z,6.97
2023-02-17T13:44:40.752Z,6.43
2023-02-17T13:47:37.703Z,6.25
2023-02-17T13:50:37.234Z,5.65
2023-02-17T13:53:40.173Z,6.05
2023-02-17T13:56:31.009Z,6.05
2023-02-17T13:59:18.403Z,6.32
2023-02-17T14:01:49.521Z,6.13
2023-02-17T14:04:30.520Z,6.03
2023-02-17T14:07:05.571Z,5.85
2023-02-17T14:09:35.819Z,5.57
2023-02-17T14:12:26.070Z,5.25
2023-02-17T14:14:56.211Z,5.25
2023-02-17T14:17:33.080Z,6.15
2023-02-17T14:20:03.393Z,5.80
2023-02-17T14:22:35.961Z,4.97
2023-02-17T14:25:25.888Z,5.22
2023-02-17T14:27:56.572Z,4.68
2023-02-17T14:30:40.181Z,4.78
2023-02-17T14:33:16.361Z,4.72
2023-02-17T14:36:06.469Z,4.50
2023-02-17T14:38:42.437Z,4.25
2023-02-17T14:41:12.456Z,4.25
2023-02-17T14:43:42.463Z,4.20
2023-02-17T14:46:12.666Z,4.22
2023-02-17T14:48:42.916Z,4.13
2023-02-17T14:51:18.234Z,4.25
2023-02-17T14:53:51.255Z,4.80
2023-02-17T14:56:38.350Z,5.65
2023-02-17T14:59:10.914Z,4.65
2023-02-17T15:01:41.019Z,5.57
2023-02-17T15:04:11.043Z,6.18
2023-02-17T15:06:49.577Z,6.38
2023-02-17T15:09:30.153Z,7.10
2023-02-17T15:11:59.254Z,8.00
2023-02-17T15:14:28.651Z,8.00
2023-02-17T15:16:58.706Z,8.80
2023-02-17T15:19:27.149Z,8.60
2023-02-17T15:21:57.206Z,8.10
2023-02-17T15:24:32.462Z,7.22
2023-02-17T15:27:05.927Z,8.40
2023-02-17T15:29:36.658Z,9.07
2023-02-17T15:32:24.027Z,11.07
2023-02-17T15:34:54.728Z,9.18
2023-02-17T15:37:23.104Z,10.25
2023-02-17T15:39:51.004Z,11.10
2023-02-17T15:42:19.932Z,11.13
2023-02-17T15:44:50.896Z,11.27
2023-02-17T15:47:21.406Z,10.30
2023-02-17T15:49:51.301Z,11.70
2023-02-17T15:52:21.545Z,12.05
2023-02-17T15:54:51.020Z,10.55
2023-02-17T15:57:25.491Z,11.48
2023-02-17T15:59:55.523Z,11.93
2023-02-17T16:02:26.520Z,11.98
2023-02-17T16:04:56.253Z,12.07
2023-02-17T16:07:26.082Z,12.10
2023-02-17T16:09:55.844Z,12.57
2023-02-17T16:12:28.659Z,13.80
2023-02-17T16:14:59.027Z,12.27
2023-02-17T16:17:28.524Z,12.80
2023-02-17T16:19:58.313Z,12.18
2023-02-17T16:22:30.173Z,13.48
2023-02-17T16:24:58.035Z,12.65
2023-02-17T16:27:27.877Z,12.45
2023-02-17T16:29:57.822Z,12.27
2023-02-17T16:32:27.907Z,12.55
2023-02-17T16:34:57.849Z,11.60
2023-02-17T16:37:27.603Z,11.77
2023-02-17T16:39:58.100Z,11.02
2023-02-17T16:42:28.116Z,11.52
2023-02-17T16:44:57.882Z,11.45
2023-02-17T16:47:30.715Z,11.40
2023-02-17T16:50:08.759Z,11.43
2023-02-17T16:52:38.826Z,10.35
2023-02-17T16:55:15.128Z,9.57
2023-02-17T16:57:47.893Z,9.45
2023-02-17T17:00:24.539Z,9.23
2023-02-17T17:02:55.005Z,10.10
2023-02-17T17:05:29.661Z,11.30
2023-02-17T17:07:59.476Z,8.75
2023-02-17T17:10:33.011Z,9.15
2023-02-17T17:13:03.241Z,9.55
2023-02-17T17:15:40.078Z,9.23
2023-02-17T17:18:19.745Z,8.30
2023-02-17T17:20:50.777Z,8.57
2023-02-17T17:23:20.969Z,8.00
2023-02-17T17:25:48.877Z,7.90
2023-02-17T17:28:20.043Z,9.18
2023-02-17T17:30:49.904Z,7.45
2023-02-17T17:33:19.790Z,7.57
2023-02-17T17:35:49.587Z,7.50
2023-02-17T17:38:19.599Z,7.43
2023-02-17T17:40:49.745Z,7.75
2023-02-17T17:43:23.561Z,6.15
2023-02-17T17:45:54.734Z,6.22
2023-02-17T17:48:23.630Z,5.90
2023-02-17T17:50:52.145Z,6.45
2023-02-17T17:53:20.409Z,5.70
2023-02-17T17:55:48.779Z,5.32
2023-02-17T17:58:17.307Z,5.55
2023-02-17T18:00:45.743Z,4.95
2023-02-17T18:03:14.017Z,4.63
2023-02-17T18:05:42.531Z,5.55
2023-02-17T18:08:11.461Z,4.82
2023-02-17T18:10:42.810Z,4.72
2023-02-17T18:13:14.639Z,5.13
2023-02-17T18:15:45.441Z,3.88
2023-02-17T18:18:14.945Z,3.90
2023-02-17T18:20:45.576Z,4.22
2023-02-17T18:23:15.534Z,4.20
2023-02-17T18:25:45.609Z,4.35
2023-02-17T18:28:15.440Z,4.65
2023-02-17T18:30:45.542Z,4.60
2023-02-17T18:33:16.012Z,4.50
2023-02-17T18:35:45.659Z,4.18
2023-02-17T18:38:15.750Z,4.53
2023-02-17T18:40:45.540Z,4.55
2023-02-17T18:43:16.875Z,5.15
2023-02-17T18:45:49.132Z,4.30
2023-02-17T18:48:19.384Z,4.75
2023-02-17T18:50:50.634Z,4.10
2023-02-17T18:53:20.701Z,3.65
2023-02-17T18:55:50.615Z,4.00
2023-02-17T18:58:20.965Z,3.88
2023-02-17T19:00:51.062Z,4.60
2023-02-17T19:03:20.849Z,4.15
2023-02-17T19:05:50.748Z,4.07
2023-02-17T19:08:20.825Z,4.53
2023-02-17T19:10:53.653Z,4.70
2023-02-17T19:13:23.845Z,4.20
2023-02-17T19:15:53.504Z,4.47
2023-02-17T19:18:23.512Z,3.78
2023-02-17T19:20:54.477Z,3.58
2023-02-17T19:23:24.816Z,3.42
2023-02-17T19:25:55.020Z,3.15
2023-02-17T19:28:24.970Z,3.42
2023-02-17T19:30:58.788Z,3.15
2023-02-17T19:33:29.055Z,2.97
2023-02-17T19:35:59.208Z,2.20
2023-02-17T19:38:30.144Z,1.50
2023-02-17T19:41:05.958Z,1.00
2023-02-17T19:43:36.595Z,2.55
2023-02-17T19:46:07.041Z,1.77
2023-02-17T19:48:37.313Z,0.90
2023-02-17T19:51:10.143Z,1.17
2023-02-17T19:53:45.442Z,1.33
2023-02-17T19:56:21.140Z,1.83
2023-02-17T19:58:51.328Z,0.98
2023-02-17T20:04:01.504Z,1.15
2023-02-17T20:06:40.934Z,1.00
2023-02-17T20:09:19.313Z,1.23
2023-02-17T20:11:53.088Z,1.33
2023-02-17T20:14:22.065Z,1.23
2023-02-17T20:16:53.396Z,1.23
2023-02-17T20:19:21.653Z,1.90
2023-02-17T20:21:49.993Z,1.15
2023-02-17T20:24:18.258Z,1.70
2023-02-17T20:26:51.009Z,1.40
2023-02-17T20:29:20.760Z,1.40
2023-02-17T20:31:50.711Z,1.95
2023-02-17T20:34:39.220Z,1.60
2023-02-17T20:37:11.217Z,2.05
2023-02-17T20:39:42.334Z,1.63
2023-02-17T20:42:18.725Z,1.20
2023-02-17T20:44:50.315Z,2.22
2023-02-17T20:47:21.337Z,1.02
2023-02-17T20:49:50.236Z,2.92
2023-02-17T20:52:20.599Z,3.30
2023-02-17T20:54:50.242Z,2.15
2023-02-17T20:57:19.992Z,2.00
2023-02-17T20:59:50.448Z,2.90
2023-02-17T21:02:19.751Z,1.83
2023-02-17T21:04:49.571Z,2.25
2023-02-17T21:07:19.558Z,1.83
2023-02-17T21:09:49.415Z,1.30
2023-02-17T21:12:19.797Z,1.85
2023-02-17T21:14:50.056Z,1.70
2023-02-17T21:17:20.115Z,2.10
2023-02-17T21:19:51.164Z,1.80
2023-02-17T21:22:19.557Z,1.83
2023-02-17T21:24:49.392Z,1.88
2023-02-17T21:27:19.303Z,1.65
2023-02-17T21:29:49.325Z,2.00
2023-02-17T21:32:20.414Z,2.25
2023-02-17T21:34:50.043Z,2.53
2023-02-17T21:37:19.925Z,2.40
2023-02-17T21:39:49.975Z,2.80
2023-02-17T21:42:39.950Z,2.00
2023-02-17T21:45:10.143Z,2.97
2023-02-17T21:47:40.117Z,1.95
2023-02-17T21:50:11.048Z,2.67
2023-02-17T21:52:40.207Z,2.33
2023-02-17T21:55:08.565Z,3.90
2023-02-17T21:57:36.957Z,2.30
2023-02-17T22:00:07.058Z,2.80
2023-02-17T22:02:37.091Z,2.95
2023-02-17T22:05:06.071Z,3.22
2023-02-17T22:07:33.687Z,1.60
2023-02-17T22:10:04.716Z,1.92
2023-02-17T22:12:37.344Z,2.97
2023-02-17T22:15:08.639Z,2.05
2023-02-17T22:17:38.781Z,2.45
2023-02-17T22:20:09.680Z,2.22
2023-02-17T22:22:39.670Z,1.75
2023-02-17T22:25:09.881Z,2.05
2023-02-17T22:27:39.933Z,2.00
2023-02-17T22:30:11.110Z,3.13
2023-02-17T22:32:43.076Z,2.53
2023-02-17T22:35:14.719Z,2.10
2023-02-17T22:37:44.560Z,2.60
2023-02-17T22:40:13.024Z,3.63
2023-02-17T22:42:41.353Z,2.08
2023-02-17T22:45:09.983Z,2.67
2023-02-17T22:47:38.273Z,2.63
2023-02-17T22:50:06.998Z,2.30
2023-02-17T22:52:35.405Z,4.80
2023-02-17T22:55:03.779Z,3.38
2023-02-17T22:57:32.045Z,1.98
2023-02-17T23:00:00.421Z,2.42
2023-02-17T23:02:28.792Z,2.22
2023-02-17T23:04:57.223Z,2.72
2023-02-17T23:07:25.707Z,2.30
2023-02-17T23:09:54.102Z,2.17
2023-02-17T23:12:22.774Z,2.42
2023-02-17T23:14:51.870Z,2.78
2023-02-17T23:17:20.229Z,2.53
2023-02-17T23:19:48.783Z,2.90
2023-02-17T23:22:19.110Z,2.80
2023-02-17T23:24:48.830Z,3.38
2023-02-17T23:27:17.756Z,2.60
2023-02-17T23:29:47.824Z,4.35
2023-02-17T23:32:17.469Z,3.28
2023-02-17T23:34:47.348Z,3.85
2023-02-17T23:37:17.031Z,5.28
2023-02-17T23:39:46.858Z,3.28
2023-02-17T23:42:16.851Z,2.53
2023-02-17T23:44:46.589Z,2.85
2023-02-17T23:47:16.461Z,3.08
2023-02-17T23:49:46.329Z,2.90
2023-02-17T23:52:16.244Z,2.42
2023-02-17T23:54:46.348Z,3.40
2023-02-17T23:57:16.147Z,3.08
2023-02-17T23:59:45.952Z,2.80
